createdAt,value
2018-03-31T04:50:58.291Z,5.8
2018-03-31T04:51:48.458Z,5.8
2018-03-31T04:52:38.439Z,5.8
2018-03-31T04:53:28.789Z,5.8
2018-03-31T04:54:18.828Z,5.8
2018-03-31T04:55:08.590Z,5.9
2018-03-31T04:55:58.163Z,5.9
2018-03-31T04:56:48.805Z,5.9
2018-03-31T04:57:38.498Z,5.9
2018-03-31T04:58:29.126Z,6
2018-03-31T04:59:18.917Z,6
2018-03-31T05:00:08.761Z,6
2018-03-31T05:00:58.835Z,6.1
2018-03-31T05:01:49.412Z,6.1
2018-03-31T05:02:39.415Z,6.1
2018-03-31T05:03:28.998Z,6.2
2018-03-31T05:04:19.060Z,6.2
2018-03-31T05:05:09.359Z,6.2
2018-03-31T05:05:59.676Z,6.3
2018-03-31T05:06:49.431Z,6.3
2018-03-31T05:07:39.504Z,6.3
2018-03-31T05:08:29.565Z,6.4
2018-03-31T05:09:19.629Z,6.4
2018-03-31T05:10:09.407Z,6.5
2018-03-31T05:10:59.724Z,6.5
2018-03-31T05:11:49.802Z,6.6
2018-03-31T05:12:40.152Z,6.6
2018-03-31T05:13:29.922Z,6.7
2018-03-31T05:14:19.695Z,6.7
2018-03-31T05:15:10.336Z,6.8
2018-03-31T05:16:00.379Z,6.8
2018-03-31T05:16:50.163Z,6.8
2018-03-31T05:17:40.212Z,6.9
2018-03-31T05:18:29.791Z,6.9
2018-03-31T05:19:20.637Z,6.9
2018-03-31T05:20:09.999Z,7
2018-03-31T05:21:00.260Z,7.1
2018-03-31T05:21:50.820Z,7.1
2018-03-31T05:22:40.856Z,7.1
2018-03-31T05:23:30.949Z,7.2
2018-03-31T05:24:21.013Z,7.2
2018-03-31T05:25:10.759Z,7.3
2018-03-31T05:26:01.106Z,7.3
2018-03-31T05:26:51.161Z,7.4
2018-03-31T05:27:40.646Z,7.4
2018-03-31T05:28:31.008Z,7.5
2018-03-31T05:29:21.064Z,7.6
2018-03-31T05:30:11.421Z,7.6
2018-03-31T05:31:01.193Z,7.7
2018-03-31T05:31:51.241Z,7.8
2018-03-31T05:32:41.305Z,7.9
2018-03-31T05:33:31.369Z,7.9
2018-03-31T05:34:21.431Z,8
2018-03-31T05:35:11.484Z,8.1
2018-03-31T05:36:01.383Z,8.2
2018-03-31T05:36:51.605Z,8.3
2018-03-31T05:37:41.379Z,8.3
2018-03-31T05:38:31.740Z,8.4
2018-03-31T05:39:21.671Z,8.4
2018-03-31T05:40:12.138Z,8.5
2018-03-31T05:41:01.906Z,8.6
2018-03-31T05:41:52.270Z,8.6
2018-03-31T05:42:42.040Z,8.7
2018-03-31T05:43:31.898Z,8.8
2018-03-31T05:44:21.862Z,8.8
2018-03-31T05:45:12.022Z,8.9
2018-03-31T05:46:02.258Z,8.9
2018-03-31T05:46:52.647Z,8.9
2018-03-31T05:47:42.410Z,9
2018-03-31T05:48:32.470Z,9
2018-03-31T05:49:22.509Z,9.1
2018-03-31T05:50:12.669Z,9.1
2018-03-31T05:51:02.923Z,9.1
2018-03-31T05:51:52.697Z,9.2
2018-03-31T05:52:42.778Z,9.3
2018-03-31T05:53:33.113Z,9.3
2018-03-31T05:54:22.686Z,9.3
2018-03-31T05:55:13.022Z,9.3
2018-03-31T05:56:03.304Z,9.4
2018-03-31T05:56:53.063Z,9.4
2018-03-31T05:57:42.883Z,9.4
2018-03-31T05:58:33.191Z,9.5
2018-03-31T05:59:23.237Z,9.5
2018-03-31T06:00:12.812Z,9.6
2018-03-31T06:01:03.071Z,9.6
2018-03-31T06:01:53.225Z,9.6
2018-03-31T06:02:43.186Z,9.7
2018-03-31T06:03:33.637Z,9.7
2018-03-31T06:04:23.396Z,9.8
2018-03-31T06:05:13.476Z,9.8
2018-03-31T06:06:03.732Z,9.8
2018-03-31T06:06:53.495Z,9.9
2018-03-31T06:07:44.138Z,9.9
2018-03-31T06:08:33.317Z,9.9
2018-03-31T06:09:23.769Z,10
2018-03-31T06:10:14.000Z,10
2018-03-31T06:11:04.084Z,10.1
2018-03-31T06:11:54.151Z,10.1
2018-03-31T06:12:43.908Z,10.1
2018-03-31T06:13:33.768Z,10.2
2018-03-31T06:14:24.324Z,10.2
2018-03-31T06:15:14.181Z,10.2
2018-03-31T06:16:04.438Z,10.3
2018-03-31T06:16:54.498Z,10.3
2018-03-31T06:17:44.270Z,10.3
2018-03-31T06:18:34.882Z,10.3
2018-03-31T06:19:24.675Z,10.4
2018-03-31T06:20:15.044Z,10.4
2018-03-31T06:21:04.876Z,10.4
2018-03-31T06:21:55.145Z,10.4
2018-03-31T06:22:44.902Z,10.5
2018-03-31T06:23:34.790Z,10.5
2018-03-31T06:24:25.338Z,10.6
2018-03-31T06:25:15.403Z,10.6
2018-03-31T06:26:05.168Z,10.6
2018-03-31T06:26:55.216Z,10.7
2018-03-31T06:27:45.278Z,10.8
2018-03-31T06:28:35.048Z,10.8
2018-03-31T06:29:25.110Z,10.9
2018-03-31T06:30:15.745Z,10.9
2018-03-31T06:31:05.809Z,11
2018-03-31T06:31:55.872Z,11.1
2018-03-31T06:32:45.925Z,11.2
2018-03-31T06:33:35.695Z,11.3
2018-03-31T06:34:26.060Z,11.3
2018-03-31T06:35:16.122Z,11.4
2018-03-31T06:36:06.161Z,11.5
2018-03-31T06:36:55.963Z,11.7
2018-03-31T06:37:46.304Z,11.8
2018-03-31T06:38:36.347Z,11.9
2018-03-31T06:39:26.412Z,12.1
2018-03-31T06:40:16.190Z,12.3
2018-03-31T06:41:06.528Z,12.4
2018-03-31T06:41:56.597Z,12.6
2018-03-31T06:42:46.662Z,12.8
2018-03-31T06:43:35.934Z,13.1
2018-03-31T06:44:26.496Z,13.3
2018-03-31T06:45:16.560Z,13.5
2018-03-31T06:46:06.612Z,13.8
2018-03-31T06:46:56.477Z,13.9
2018-03-31T06:47:46.429Z,14.2
2018-03-31T06:48:36.782Z,14.4
2018-03-31T06:49:26.660Z,14.6
2018-03-31T06:50:16.921Z,14.9
2018-03-31T06:51:07.246Z,15.2
2018-03-31T06:51:57.033Z,15.5
2018-03-31T06:52:46.805Z,15.8
2018-03-31T06:53:37.447Z,16.2
2018-03-31T06:54:27.221Z,16.6
2018-03-31T06:55:17.069Z,17.1
2018-03-31T06:56:06.923Z,17.7
2018-03-31T06:56:57.402Z,18.3
2018-03-31T06:57:47.443Z,19.1
2018-03-31T06:58:37.519Z,19.9
2018-03-31T06:59:27.863Z,20.8
2018-03-31T07:00:17.340Z,21.8
2018-03-31T07:01:07.405Z,22.8
2018-03-31T07:01:57.845Z,23.8
2018-03-31T07:02:47.629Z,24.9
2018-03-31T07:03:37.959Z,26.1
2018-03-31T07:04:27.947Z,27.3
2018-03-31T07:05:17.788Z,28.5
2018-03-31T07:06:08.333Z,29.8
2018-03-31T07:06:58.409Z,31.1
2018-03-31T07:07:47.770Z,32.3
2018-03-31T07:08:38.513Z,33.5
2018-03-31T07:09:28.280Z,34.7
2018-03-31T07:10:18.350Z,35.8
2018-03-31T07:11:08.123Z,36.9
2018-03-31T07:11:58.476Z,37.9
2018-03-31T07:12:48.836Z,39.1
2018-03-31T07:13:38.579Z,40.2
2018-03-31T07:14:28.367Z,41.3
2018-03-31T07:15:18.525Z,42.4
2018-03-31T07:16:08.783Z,44.2
2018-03-31T07:16:59.125Z,46.8
2018-03-31T07:17:48.891Z,46.9
2018-03-31T07:18:38.987Z,44.5
2018-03-31T07:19:28.731Z,42.8
2018-03-31T07:20:19.348Z,40.7
2018-03-31T07:21:09.160Z,38.9
2018-03-31T07:21:59.205Z,37.9
2018-03-31T07:22:48.971Z,37.2
2018-03-31T07:23:38.845Z,36.8
2018-03-31T07:24:29.487Z,36.5
2018-03-31T07:25:19.450Z,36.6
2018-03-31T07:26:09.504Z,36.9
2018-03-31T07:26:59.571Z,37.6
2018-03-31T07:27:49.631Z,38.4
2018-03-31T07:28:39.729Z,39.3
2018-03-31T07:29:29.267Z,39.9
2018-03-31T07:30:20.108Z,40.4
2018-03-31T07:31:09.586Z,41
2018-03-31T07:31:59.930Z,41.8
2018-03-31T07:32:49.997Z,44.5
2018-03-31T07:33:40.062Z,45.8
2018-03-31T07:34:30.127Z,44.3
2018-03-31T07:35:20.479Z,43.2
2018-03-31T07:36:10.284Z,42.2
2018-03-31T07:37:00.301Z,41.1
2018-03-31T07:37:50.636Z,40.1
2018-03-31T07:38:40.766Z,39.3
2018-03-31T07:39:30.489Z,38.6
2018-03-31T07:40:20.538Z,37.9
2018-03-31T07:41:10.893Z,37.4
2018-03-31T07:42:00.669Z,37
2018-03-31T07:42:51.005Z,36.7
2018-03-31T07:43:41.077Z,36.4
2018-03-31T07:44:30.856Z,36.3
2018-03-31T07:45:21.229Z,36.2
2018-03-31T07:46:11.269Z,36.2
2018-03-31T07:47:01.305Z,36.4
2018-03-31T07:47:51.368Z,36.6
2018-03-31T07:48:41.158Z,36.9
2018-03-31T07:49:31.500Z,37.4
2018-03-31T07:50:21.287Z,38.1
2018-03-31T07:51:11.334Z,38.7
2018-03-31T07:52:01.830Z,39.9
2018-03-31T07:52:51.476Z,42.1
2018-03-31T07:53:41.530Z,42.3
2018-03-31T07:54:31.876Z,41.7
2018-03-31T07:55:21.664Z,41.4
2018-03-31T07:56:11.992Z,40.9
2018-03-31T07:57:01.539Z,40
2018-03-31T07:57:52.340Z,39.1
2018-03-31T07:58:42.103Z,38.3
2018-03-31T07:59:31.869Z,37.9
2018-03-31T08:00:22.790Z,37.7
2018-03-31T08:01:12.086Z,37.6
2018-03-31T08:02:02.527Z,37.8
2018-03-31T08:02:52.707Z,38.1
2018-03-31T08:03:42.766Z,38.6
2018-03-31T08:04:32.339Z,39.1
2018-03-31T08:05:22.672Z,39.9
2018-03-31T08:06:12.657Z,40.6
2018-03-31T08:07:02.804Z,41.6
2018-03-31T08:07:52.290Z,43.7
2018-03-31T08:08:42.844Z,44.6
2018-03-31T08:09:33.211Z,44.3
2018-03-31T08:10:22.967Z,44.2
2018-03-31T08:11:13.307Z,43.8
2018-03-31T08:12:03.378Z,42.8
2018-03-31T08:12:53.508Z,41.5
2018-03-31T08:13:43.593Z,40.4
2018-03-31T08:14:33.549Z,39.5
2018-03-31T08:15:23.644Z,38.9
2018-03-31T08:16:13.679Z,38.6
2018-03-31T08:17:03.466Z,38.3
2018-03-31T08:17:54.116Z,38.3
2018-03-31T08:18:43.860Z,38.3
2018-03-31T08:19:33.526Z,38.4
2018-03-31T08:20:24.003Z,38.6
2018-03-31T08:21:13.857Z,39
2018-03-31T08:22:03.815Z,39.4
2018-03-31T08:22:54.448Z,39.9
2018-03-31T08:23:44.228Z,40.6
2018-03-31T08:24:33.841Z,41.4
2018-03-31T08:25:23.656Z,42.8
2018-03-31T08:26:14.436Z,45.3
2018-03-31T08:27:04.185Z,46.2
2018-03-31T08:27:54.535Z,46.2
2018-03-31T08:28:44.598Z,46.3
2018-03-31T08:29:34.648Z,45.8
2018-03-31T08:30:25.236Z,44.9
2018-03-31T08:31:15.070Z,43.8
2018-03-31T08:32:05.113Z,43
2018-03-31T08:32:55.170Z,42.8
2018-03-31T08:33:45.253Z,43
2018-03-31T08:34:35.314Z,43.4
2018-03-31T08:35:25.088Z,43.6
2018-03-31T08:36:15.446Z,43.7
2018-03-31T08:37:05.223Z,43.6
2018-03-31T08:37:55.615Z,43.2
2018-03-31T08:38:45.605Z,42.8
2018-03-31T08:39:35.680Z,42.3
2018-03-31T08:40:25.450Z,41.8
2018-03-31T08:41:15.502Z,41.5
2018-03-31T08:42:05.862Z,41.4
2018-03-31T08:42:55.920Z,41.3
2018-03-31T08:43:45.977Z,41.3
2018-03-31T08:44:36.058Z,41.3
2018-03-31T08:45:26.099Z,41.3
2018-03-31T08:46:16.198Z,41.2
2018-03-31T08:47:06.658Z,41
2018-03-31T08:47:55.732Z,40.8
2018-03-31T08:48:46.401Z,40.6
2018-03-31T08:49:36.401Z,40.4
2018-03-31T08:50:26.468Z,40.3
2018-03-31T08:51:16.534Z,40.3
2018-03-31T08:52:06.333Z,40.2
2018-03-31T08:52:56.364Z,40.1
2018-03-31T08:53:46.436Z,40.1
2018-03-31T08:54:36.936Z,40.1
2018-03-31T08:55:26.559Z,40
2018-03-31T08:56:16.919Z,39.9
2018-03-31T08:57:06.694Z,39.8
2018-03-31T08:57:56.739Z,39.6
2018-03-31T08:58:47.141Z,39.3
2018-03-31T08:59:36.863Z,38.9
2018-03-31T09:00:27.214Z,38.3
2018-03-31T09:01:16.988Z,37.7
2018-03-31T09:02:07.329Z,37.3
2018-03-31T09:02:57.386Z,36.8
2018-03-31T09:03:47.462Z,36.5
2018-03-31T09:04:37.525Z,36.2
2018-03-31T09:05:27.584Z,36
2018-03-31T09:06:17.631Z,35.8
2018-03-31T09:07:07.688Z,35.6
2018-03-31T09:07:57.546Z,35.4
2018-03-31T09:08:47.574Z,35.3
2018-03-31T09:09:37.873Z,35.1
2018-03-31T09:10:27.194Z,34.9
2018-03-31T09:11:18.024Z,34.8
2018-03-31T09:12:08.073Z,34.6
2018-03-31T09:12:58.138Z,34.4
2018-03-31T09:13:48.191Z,34.3
2018-03-31T09:14:38.255Z,34.1
2018-03-31T09:15:28.125Z,33.9
2018-03-31T09:16:18.199Z,33.8
2018-03-31T09:17:08.170Z,33.7
2018-03-31T09:17:58.506Z,33.6
2018-03-31T09:18:48.087Z,33.4
2018-03-31T09:19:38.063Z,33.2
2018-03-31T09:20:28.420Z,33.1
2018-03-31T09:21:18.746Z,32.9
2018-03-31T09:22:07.960Z,32.8
2018-03-31T09:22:58.295Z,32.7
2018-03-31T09:23:48.932Z,32.6
2018-03-31T09:24:38.420Z,32.6
2018-03-31T09:25:28.504Z,32.6
2018-03-31T09:26:18.547Z,32.8
2018-03-31T09:27:09.185Z,32.9
2018-03-31T09:27:58.767Z,33.2
2018-03-31T09:28:48.441Z,33.6
2018-03-31T09:29:39.390Z,33.9
2018-03-31T09:30:29.441Z,34.3
2018-03-31T09:31:19.029Z,34.5
2018-03-31T09:32:09.288Z,34.8
2018-03-31T09:32:59.118Z,35.1
2018-03-31T09:33:49.684Z,35.3
2018-03-31T09:34:39.164Z,35.6
2018-03-31T09:35:29.315Z,35.9
2018-03-31T09:36:19.687Z,36.1
2018-03-31T09:37:09.359Z,36.4
2018-03-31T09:37:59.499Z,36.7
2018-03-31T09:38:49.854Z,37
2018-03-31T09:39:39.811Z,37.3
2018-03-31T09:40:29.394Z,37.6
2018-03-31T09:41:19.937Z,38
2018-03-31T09:42:09.814Z,38.4
2018-03-31T09:42:59.864Z,38.8
2018-03-31T09:43:50.442Z,39.3
2018-03-31T09:44:40.182Z,40
2018-03-31T09:45:29.966Z,40.9
2018-03-31T09:46:20.113Z,42.2
2018-03-31T09:47:10.685Z,44.9
2018-03-31T09:48:00.148Z,46.4
2018-03-31T09:48:50.201Z,46.4
2018-03-31T09:49:40.366Z,46.4
2018-03-31T09:50:30.623Z,45.8
2018-03-31T09:51:20.674Z,44.4
2018-03-31T09:52:11.013Z,43.6
2018-03-31T09:53:00.493Z,43.3
2018-03-31T09:53:50.366Z,43.3
2018-03-31T09:54:40.424Z,43.9
2018-03-31T09:55:31.249Z,44.9
2018-03-31T09:56:20.740Z,45.9
2018-03-31T09:57:11.098Z,46.6
2018-03-31T09:58:00.883Z,46.9
2018-03-31T09:58:50.923Z,46.8
2018-03-31T09:59:41.097Z,46.5
2018-03-31T10:00:31.649Z,46.2
2018-03-31T10:01:20.834Z,45.9
2018-03-31T10:02:11.745Z,45.8
2018-03-31T10:03:01.527Z,45.9
2018-03-31T10:03:51.299Z,46.7
2018-03-31T10:04:41.077Z,47.7
2018-03-31T10:05:31.627Z,48.8
2018-03-31T10:06:21.578Z,49.7
2018-03-31T10:07:11.847Z,50.3
2018-03-31T10:08:01.320Z,50.6
2018-03-31T10:08:51.968Z,50.8
2018-03-31T10:09:42.023Z,51.3
2018-03-31T10:10:32.104Z,51.7
2018-03-31T10:11:22.151Z,52
2018-03-31T10:12:11.931Z,52.4
2018-03-31T10:13:02.083Z,52.9
2018-03-31T10:13:52.622Z,53.3
2018-03-31T10:14:42.693Z,53.8
2018-03-31T10:15:31.868Z,54.2
2018-03-31T10:16:22.545Z,54.5
2018-03-31T10:17:12.369Z,54.7
2018-03-31T10:18:02.453Z,54.8
2018-03-31T10:18:52.706Z,55.1
2018-03-31T10:19:42.474Z,55.4
2018-03-31T10:20:33.125Z,55.6
2018-03-31T10:21:22.304Z,55.7
2018-03-31T10:22:12.473Z,55.3
2018-03-31T10:23:02.823Z,54.8
2018-03-31T10:23:53.357Z,54.6
2018-03-31T10:24:43.161Z,54.6
2018-03-31T10:25:33.004Z,55
2018-03-31T10:26:22.984Z,55.6
2018-03-31T10:27:13.429Z,56
2018-03-31T10:28:02.917Z,56.3
2018-03-31T10:28:53.436Z,56.7
2018-03-31T10:29:43.513Z,57.1
2018-03-31T10:30:33.584Z,57.3
2018-03-31T10:31:23.946Z,57.3
2018-03-31T10:32:13.519Z,57.1
2018-03-31T10:33:03.196Z,56.9
2018-03-31T10:33:53.838Z,56.9
2018-03-31T10:34:43.632Z,56.8
2018-03-31T10:35:34.269Z,56.6
2018-03-31T10:36:24.080Z,56.4
2018-03-31T10:37:13.594Z,56.2
2018-03-31T10:38:04.424Z,56.1
2018-03-31T10:38:53.920Z,56.1
2018-03-31T10:39:43.961Z,56.2
2018-03-31T10:40:34.056Z,56.3
2018-03-31T10:41:23.821Z,56.2
2018-03-31T10:42:14.259Z,56.1
2018-03-31T10:43:04.230Z,55.8
2018-03-31T10:43:54.587Z,55.2
2018-03-31T10:44:44.360Z,54.9
2018-03-31T10:45:34.706Z,54.9
2018-03-31T10:46:25.118Z,55
2018-03-31T10:47:14.532Z,55.1
2018-03-31T10:48:04.893Z,55.2
2018-03-31T10:48:54.752Z,55.1
2018-03-31T10:49:45.015Z,54.9
2018-03-31T10:50:35.074Z,54.6
2018-03-31T10:51:24.557Z,54.1
2018-03-31T10:52:15.197Z,53.6
2018-03-31T10:53:05.276Z,53.1
2018-03-31T10:53:55.332Z,52.9
2018-03-31T10:54:45.200Z,52.8
2018-03-31T10:55:35.274Z,52.8
2018-03-31T10:56:25.824Z,52.6
2018-03-31T10:57:15.877Z,52.4
2018-03-31T10:58:05.937Z,52.2
2018-03-31T10:58:55.993Z,51.8
2018-03-31T10:59:46.043Z,51.3
2018-03-31T11:00:35.832Z,50.6
2018-03-31T11:01:25.489Z,50.1
2018-03-31T11:02:15.464Z,49.7
2018-03-31T11:03:06.012Z,49.4
2018-03-31T11:03:56.349Z,49.1
2018-03-31T11:04:45.854Z,48.8
2018-03-31T11:05:36.306Z,48.5
2018-03-31T11:06:25.768Z,48.2
2018-03-31T11:07:16.131Z,47.9
2018-03-31T11:08:06.391Z,47.6
2018-03-31T11:08:56.773Z,47.3
2018-03-31T11:09:46.507Z,46.9
2018-03-31T11:10:36.372Z,46.6
2018-03-31T11:11:26.351Z,46.4
2018-03-31T11:12:16.692Z,46.4
2018-03-31T11:13:06.470Z,46.4
2018-03-31T11:13:56.325Z,46.4
2018-03-31T11:14:46.866Z,46.5
2018-03-31T11:15:36.736Z,46.6
2018-03-31T11:16:27.308Z,46.8
2018-03-31T11:17:16.589Z,47.2
2018-03-31T11:18:07.126Z,48.1
2018-03-31T11:18:57.196Z,49.5
2018-03-31T11:19:47.245Z,50.8
2018-03-31T11:20:36.822Z,51.8
2018-03-31T11:22:16.937Z,52.9
2018-03-31T11:23:07.101Z,53.4
2018-03-31T11:23:57.258Z,53.8
2018-03-31T11:24:47.618Z,54.1
2018-03-31T11:25:37.690Z,54.6
2018-03-31T11:26:27.750Z,55.2
2018-03-31T11:27:18.106Z,55.8
2018-03-31T11:28:07.876Z,56.2
2018-03-31T11:28:58.218Z,56.6
2018-03-31T11:29:48.272Z,56.9
2018-03-31T11:30:37.470Z,57.1
2018-03-31T11:31:27.931Z,57.4
2018-03-31T11:32:18.271Z,57.6
2018-03-31T11:33:07.962Z,57.8
2018-03-31T11:33:58.022Z,57.9
2018-03-31T11:34:48.380Z,58.1
2018-03-31T11:35:38.742Z,58.3
2018-03-31T11:36:28.214Z,58.4
2018-03-31T11:37:18.067Z,58.3
2018-03-31T11:38:08.922Z,58.2
2018-03-31T11:38:58.104Z,58
2018-03-31T11:40:38.322Z,57.5
2018-03-31T11:41:28.766Z,57.4
2018-03-31T11:42:18.691Z,57.3
2018-03-31T11:43:08.301Z,57.3
2018-03-31T11:43:58.854Z,57.2
2018-03-31T11:44:49.127Z,57.1
2018-03-31T11:45:38.992Z,56.9
2018-03-31T11:46:29.047Z,56.8
2018-03-31T11:47:19.609Z,56.6
2018-03-31T11:48:09.652Z,56.4
2018-03-31T11:48:59.228Z,56.3
2018-03-31T11:49:49.499Z,56.2
2018-03-31T11:50:39.259Z,56
2018-03-31T11:51:29.622Z,55.8
2018-03-31T11:52:19.674Z,55.4
2018-03-31T11:53:09.739Z,55.1
2018-03-31T11:53:59.811Z,54.8
2018-03-31T11:54:49.566Z,54.3
2018-03-31T11:55:40.233Z,53.8
2018-03-31T11:56:29.693Z,53.3
2018-03-31T11:57:19.786Z,53.3
2018-03-31T11:58:10.408Z,53.6
2018-03-31T11:59:00.176Z,54.1
2018-03-31T11:59:50.236Z,54.7
2018-03-31T12:00:40.576Z,55.1
2018-03-31T12:01:30.085Z,55.5
2018-03-31T12:02:19.930Z,55.8
2018-03-31T12:03:10.595Z,56.1
2018-03-31T12:04:00.692Z,56.4
2018-03-31T12:04:50.925Z,56.6
2018-03-31T12:05:40.477Z,56.7
2018-03-31T12:06:30.751Z,56.9
2018-03-31T12:07:21.115Z,57
2018-03-31T12:08:10.366Z,57.1
2018-03-31T12:09:00.728Z,57.2
2018-03-31T12:09:50.700Z,57.3
2018-03-31T12:10:41.068Z,57.4
2018-03-31T12:11:30.822Z,57.4
2018-03-31T12:12:20.887Z,57.5
2018-03-31T12:13:11.255Z,57.5
2018-03-31T12:14:00.815Z,57.5
2018-03-31T12:14:51.154Z,57.5
2018-03-31T12:15:41.422Z,57.5
2018-03-31T12:16:31.595Z,57.4
2018-03-31T12:17:21.551Z,57.5
2018-03-31T12:18:11.921Z,57.6
2018-03-31T12:19:01.658Z,57.6
2018-03-31T12:19:51.532Z,57.8
2018-03-31T12:20:41.807Z,58
2018-03-31T12:21:31.869Z,58.1
2018-03-31T12:22:21.631Z,58.2
2018-03-31T12:23:11.780Z,58.2
2018-03-31T12:24:02.144Z,58.1
2018-03-31T12:24:51.819Z,57.9
2018-03-31T12:25:41.889Z,57.8
2018-03-31T12:26:31.934Z,57.7
2018-03-31T12:27:22.592Z,57.6
2018-03-31T12:28:12.452Z,57.6
2018-03-31T12:29:01.940Z,57.6
2018-03-31T12:29:52.584Z,57.5
2018-03-31T12:30:42.266Z,57.4
2018-03-31T12:31:32.621Z,57.4
2018-03-31T12:32:22.396Z,57.3
2018-03-31T12:33:12.829Z,57.1
2018-03-31T12:34:02.892Z,57.1
2018-03-31T12:34:52.367Z,57
2018-03-31T12:35:42.639Z,57
2018-03-31T12:36:32.409Z,57
2018-03-31T12:37:22.771Z,57
2018-03-31T12:38:12.539Z,57.1
2018-03-31T12:39:03.168Z,57
2018-03-31T12:39:53.244Z,57
2018-03-31T12:40:43.306Z,57
2018-03-31T12:41:33.064Z,57
2018-03-31T12:42:23.441Z,56.9
2018-03-31T12:43:13.497Z,56.9
2018-03-31T12:44:03.363Z,56.8
2018-03-31T12:44:53.309Z,56.6
2018-03-31T12:45:43.287Z,56.5
2018-03-31T12:46:34.001Z,56.3
2018-03-31T12:47:24.071Z,55.8
2018-03-31T12:48:14.128Z,55.2
2018-03-31T12:49:03.343Z,54.6
2018-03-31T12:49:54.353Z,54.3
2018-03-31T12:50:44.332Z,54.3
2018-03-31T12:51:34.127Z,54.3
2018-03-31T12:52:24.263Z,54.4
2018-03-31T12:53:13.948Z,54.6
2018-03-31T12:54:04.312Z,54.8
2018-03-31T12:54:53.959Z,54.9
2018-03-31T12:55:44.424Z,54.9
2018-03-31T12:56:34.195Z,54.8
2018-03-31T12:57:25.021Z,54.8
2018-03-31T12:58:14.602Z,54.7
2018-03-31T12:59:04.758Z,54.7
2018-03-31T12:59:54.463Z,54.6
2018-03-31T13:00:44.508Z,54.6
2018-03-31T13:01:35.167Z,54.6
2018-03-31T13:02:24.320Z,54.6
2018-03-31T13:03:14.797Z,54.7
2018-03-31T13:04:05.322Z,54.8
2018-03-31T13:04:54.829Z,54.8
2018-03-31T13:05:44.777Z,54.8
2018-03-31T13:06:34.955Z,54.8
2018-03-31T13:07:25.597Z,54.8
2018-03-31T13:08:15.086Z,54.8
2018-03-31T13:09:05.443Z,54.8
2018-03-31T13:09:55.761Z,54.9
2018-03-31T13:10:44.974Z,54.8
2018-03-31T13:11:35.133Z,54.6
2018-03-31T13:12:25.964Z,54.2
2018-03-31T13:13:15.739Z,53.6
2018-03-31T13:14:05.788Z,53.1
2018-03-31T13:14:55.582Z,52.7
2018-03-31T13:16:35.583Z,52.3
2018-03-31T13:17:26.100Z,52.3
2018-03-31T13:19:05.690Z,52.4
2018-03-31T13:19:55.997Z,52.3
2018-03-31T13:21:36.386Z,51.7
2018-03-31T13:22:26.121Z,51.6
2018-03-31T13:23:16.226Z,51.6
2018-03-31T13:24:06.071Z,51.7
2018-03-31T13:24:56.604Z,51.8
2018-03-31T13:25:46.399Z,51.9
2018-03-31T13:27:26.794Z,52.1
2018-03-31T13:28:17.170Z,52.1
2018-03-31T13:29:06.950Z,52.1
2018-03-31T13:29:56.595Z,52
2018-03-31T13:31:37.031Z,51.8
2018-03-31T13:32:27.193Z,51.6
2018-03-31T13:33:17.333Z,51.5
2018-03-31T13:34:07.591Z,51.4
2018-03-31T13:34:57.132Z,51.4
2018-03-31T13:35:47.133Z,51.4
2018-03-31T13:36:37.477Z,51.1
2018-03-31T13:37:26.773Z,50.8
2018-03-31T13:38:17.620Z,50.3
2018-03-31T13:39:07.674Z,49.8
2018-03-31T13:39:58.048Z,49.4
2018-03-31T13:40:47.332Z,49
2018-03-31T13:41:37.377Z,48.7
2018-03-31T13:42:27.627Z,48.4
2018-03-31T13:43:17.697Z,48.2
2018-03-31T13:44:08.346Z,48
2018-03-31T13:44:58.103Z,47.8
2018-03-31T13:45:47.885Z,47.6
2018-03-31T13:46:37.752Z,47.3
2018-03-31T13:47:28.099Z,46.8
2018-03-31T13:48:18.397Z,45.9
2018-03-31T13:49:08.032Z,45.1
2018-03-31T13:49:58.397Z,44.3
2018-03-31T13:50:48.276Z,43.7
2018-03-31T13:51:38.635Z,43.3
2018-03-31T13:52:28.672Z,43.1
2018-03-31T13:53:18.744Z,43
2018-03-31T13:54:09.135Z,42.9
2018-03-31T13:54:58.582Z,42.8
2018-03-31T13:55:48.940Z,42.9
2018-03-31T13:56:39.002Z,43
2018-03-31T13:57:28.660Z,43.2
2018-03-31T13:58:18.540Z,43.3
2018-03-31T13:59:09.169Z,43.3
2018-03-31T13:59:59.504Z,43.3
2018-03-31T14:00:49.578Z,43.2
2018-03-31T14:01:39.642Z,43.1
2018-03-31T14:02:29.711Z,43
2018-03-31T14:03:19.746Z,42.9
2018-03-31T14:04:09.820Z,42.8
2018-03-31T14:04:59.611Z,42.6
2018-03-31T14:05:49.663Z,42.3
2018-03-31T14:06:39.732Z,42.1
2018-03-31T14:07:29.813Z,41.9
2018-03-31T14:08:19.870Z,41.7
2018-03-31T14:09:09.908Z,41.5
2018-03-31T14:10:00.276Z,41.3
2018-03-31T14:10:50.325Z,41.1
2018-03-31T14:11:39.710Z,40.8
2018-03-31T14:12:30.203Z,40.5
2018-03-31T14:13:20.243Z,40.3
2018-03-31T14:14:10.559Z,40.1
2018-03-31T14:15:00.626Z,39.8
2018-03-31T14:15:50.688Z,39.7
2018-03-31T14:16:40.474Z,39.5
2018-03-31T14:17:30.836Z,39.3
2018-03-31T14:18:20.871Z,39.1
2018-03-31T14:19:10.709Z,38.9
2018-03-31T14:20:01.002Z,38.8
2018-03-31T14:20:51.069Z,38.6
2018-03-31T14:21:40.865Z,38.4
2018-03-31T14:22:30.920Z,38.2
2018-03-31T14:23:20.685Z,38
2018-03-31T14:24:10.838Z,37.8
2018-03-31T14:25:00.808Z,37.6
2018-03-31T14:25:51.165Z,37.3
2018-03-31T14:26:41.228Z,37.1
2018-03-31T14:27:31.313Z,36.8
2018-03-31T14:28:21.076Z,36.6
2018-03-31T14:29:11.460Z,36.4
2018-03-31T14:30:01.072Z,36.2
2018-03-31T14:30:51.841Z,36
2018-03-31T14:31:41.870Z,35.8
2018-03-31T14:32:31.645Z,35.6
2018-03-31T14:33:21.722Z,35.4
2018-03-31T14:34:11.200Z,35.3
2018-03-31T14:35:01.845Z,35.2
2018-03-31T14:35:51.618Z,35.1
2018-03-31T14:36:41.769Z,34.9
2018-03-31T14:37:32.172Z,34.8
2018-03-31T14:38:22.100Z,34.6
2018-03-31T14:39:11.940Z,34.4
2018-03-31T14:40:02.210Z,34.3
2018-03-31T14:40:52.251Z,34.1
2018-03-31T14:41:42.336Z,33.9
2018-03-31T14:42:32.196Z,33.7
2018-03-31T14:43:22.470Z,33.6
2018-03-31T14:44:12.533Z,33.4
2018-03-31T14:45:02.596Z,33.3
2018-03-31T14:45:52.946Z,33.1
2018-03-31T14:46:42.806Z,32.9
2018-03-31T14:47:32.749Z,32.8
2018-03-31T14:48:22.831Z,32.7
2018-03-31T14:49:12.404Z,32.6
2018-03-31T14:50:02.759Z,32.4
2018-03-31T14:50:52.530Z,32.2
2018-03-31T14:51:43.070Z,32
2018-03-31T14:52:33.446Z,31.8
2018-03-31T14:53:23.200Z,31.7
2018-03-31T14:54:13.275Z,31.6
2018-03-31T14:55:03.046Z,31.4
2018-03-31T14:55:53.410Z,31.3
2018-03-31T14:56:43.153Z,31.1
2018-03-31T14:57:33.108Z,30.9
2018-03-31T14:58:23.080Z,30.8
2018-03-31T14:59:13.740Z,30.6
2018-03-31T15:00:03.508Z,30.5
2018-03-31T15:00:53.266Z,30.4
2018-03-31T15:01:43.807Z,30.3
2018-03-31T15:02:34.175Z,30.1
2018-03-31T15:03:23.956Z,30.1
2018-03-31T15:04:14.021Z,30
2018-03-31T15:05:03.772Z,29.9
2018-03-31T15:05:53.819Z,29.8
2018-03-31T15:06:44.180Z,29.8
2018-03-31T15:07:34.250Z,29.6
2018-03-31T15:08:24.617Z,29.5
2018-03-31T15:09:13.589Z,29.4
2018-03-31T15:10:04.534Z,29.3
2018-03-31T15:10:54.302Z,29.1
2018-03-31T15:11:44.846Z,29
2018-03-31T15:12:34.420Z,28.9
2018-03-31T15:13:24.669Z,28.8
2018-03-31T15:14:15.014Z,28.7
2018-03-31T15:15:05.162Z,28.6
2018-03-31T15:15:55.207Z,28.5
2018-03-31T15:16:45.194Z,28.4
2018-03-31T15:17:35.258Z,28.4
2018-03-31T15:18:25.306Z,28.3
2018-03-31T15:19:15.376Z,28.2
2018-03-31T15:20:05.163Z,28.1
2018-03-31T15:20:54.926Z,28.1
2018-03-31T15:21:45.294Z,28
2018-03-31T15:22:35.344Z,27.9
2018-03-31T15:24:15.748Z,27.7
2018-03-31T15:25:05.816Z,27.6
2018-03-31T15:25:55.605Z,27.5
2018-03-31T15:26:45.662Z,27.4
2018-03-31T15:27:35.988Z,27.3
2018-03-31T15:28:26.259Z,27.2
2018-03-31T15:29:15.829Z,27.2
2018-03-31T15:30:06.195Z,27.1
2018-03-31T15:30:55.951Z,27.1
2018-03-31T15:31:45.738Z,27
2018-03-31T15:32:36.078Z,27
2018-03-31T15:33:26.407Z,26.9
2018-03-31T15:34:16.502Z,26.9
2018-03-31T15:35:06.262Z,26.9
2018-03-31T15:35:56.320Z,26.8
2018-03-31T15:36:46.179Z,26.8
2018-03-31T15:37:35.963Z,26.8
2018-03-31T15:38:26.815Z,26.7
2018-03-31T15:39:16.384Z,26.6
2018-03-31T15:40:06.830Z,26.6
2018-03-31T15:40:56.487Z,26.5
2018-03-31T15:41:46.772Z,26.4
2018-03-31T15:42:36.520Z,26.4
2018-03-31T15:43:26.897Z,26.4
2018-03-31T15:44:16.946Z,26.3
2018-03-31T15:45:07.287Z,26.3
2018-03-31T15:45:57.079Z,26.1
2018-03-31T15:46:46.837Z,26.1
2018-03-31T15:47:36.894Z,26
2018-03-31T15:48:27.530Z,26
2018-03-31T15:49:17.308Z,25.9
2018-03-31T15:50:07.177Z,25.9
2018-03-31T15:50:56.842Z,25.8
2018-03-31T15:51:47.483Z,25.7
2018-03-31T15:52:37.549Z,25.6
2018-03-31T15:53:27.906Z,25.6
2018-03-31T15:54:17.936Z,25.5
2018-03-31T15:55:08.017Z,25.5
2018-03-31T15:55:57.789Z,25.4
2018-03-31T15:56:48.124Z,25.4
2018-03-31T15:57:37.906Z,25.3
2018-03-31T15:58:28.254Z,25.3
2018-03-31T15:59:18.314Z,25.3
2018-03-31T16:00:08.383Z,25.2
2018-03-31T16:00:58.190Z,25.1
2018-03-31T16:01:48.376Z,25.1
2018-03-31T16:02:38.547Z,25
2018-03-31T16:03:28.638Z,24.9
2018-03-31T16:04:18.680Z,24.9
2018-03-31T16:05:08.753Z,24.8
2018-03-31T16:05:58.797Z,24.8
2018-03-31T16:06:48.869Z,24.6
2018-03-31T16:07:38.655Z,24.6
2018-03-31T16:08:28.710Z,24.6
2018-03-31T16:09:19.050Z,24.5